Seatac, WA

12:11 AM PDT on September 03, 2014 (GMT -0700)
Seattle-Tacoma International | Change Station
CLOSE
Current Station
Airport
Location: Seattle,
Elevation: 433 ft
Nearby Weather Stations

Elev 433 ft 47.44 °N, 122.31 °W | Updated 18 minutes ago

Light Rain
Light Rain
57 °F
Feels Like 57 °F
N
8
Wind Variable Wind from SSW

Today
High -- | Low -- °F
--% Chance of Precip.
Yesterday
High -- | Low -- °F
Precip. -- in
6:30 AM 7:45 PM
First Quarter, 59% visible
Pressure 29.93 in
Visibility 10.0 miles
Clouds Few 2000 ft
Mostly Cloudy 6000 ft
Overcast 7500 ft
Dew Point 52 °F
Humidity 83%
Rainfall 0.12 in
Snow Depth Not available.
UV 0 out of 12
Pollen 2.50 out of 12
Air Quality Not available.
Flu Activity Not available.
METAR KSEA 030653Z 21007KT 10SM -RA FEW020 BKN060 OVC075 14/11 A2991 RMK AO2 RAB30 SLP134 P0001 T01390111

More Conditions Fewer Conditions

Pressure 29.93 in
Visibility 10.0 miles
Clouds Few 2000 ft
Mostly Cloudy 6000 ft
Overcast 7500 ft
Dew Point 52 °F
Humidity 83%
Rainfall 0.12 in
Snow Depth Not available.
UV 0 out of 12
Pollen 2.50 out of 12
Air Quality Not available.
Flu Activity Not available.
METAR KSEA 030653Z 21007KT 10SM -RA FEW020 BKN060 OVC075 14/11 A2991 RMK AO2 RAB30 SLP134 P0001 T01390111

More Conditions Fewer Conditions

10-Day Weather Forecast

Almanac

Astronomy

Sep. 03, 2014 Rise Set
Actual Time 6:30 AM PDT 7:45 PM PDT
Civil Twilight 5:59 AM PDT 8:16 PM PDT
Nautical Twilight 5:20 AM PDT 8:54 PM PDT
Astronomical Twilight 4:40 AM PDT 9:35 PM PDT
Moon 3:45 PM PDT 12:16 AM PDT
Length of Visible Light 14h 17m
Length of Day
13h 14m
Tomorrow will be 3m 19s shorter.
First Quarter, 59% of the Moon is Illuminated
Today
First Quarter
Sep 8
Full
Sep 15
Last Quarter
Sep 24
New
Oct 1
First Quarter

Community

WunderPhotos

Upload Photos

1,749,888 photos uploaded!

Nearby

Air Quality

  Air Quality AQ Index Pollutant
Tuesday Good
OZONE
Tuesday Good
PM2.5
Wednesday Good
OZONE
Wednesday Good
PM2.5
Thursday Good
OZONE
Thursday Good
PM2.5
Friday Good
OZONE
Friday Good
PM2.5
Saturday Good
OZONE
Saturday Good
PM2.5
Sunday Good
OZONE
Sunday Good
PM2.5

Snow Depth

Station Depth Elevation
Rex River 0 in 4000 ft
Mount Gardner 0 in 3000 ft
Burnt Mountain 0 in 4200 ft
Alpine Meadows 0 in 3500 ft
Mount Crag 0 in 4050 ft

Earthquake Activity

City Distance Mag. Time & Date
No recent earthquake activity has been reported nearby.
Minimum magnitude displayed is 2.5.

Coastal Water Temperatures

Place Temperature
Port Townsend, WA 53.1 °F
Seattle, WA 55.9 °F
Friday Harbor, WA 53.1 °F
Tacoma, WA 55.9 °F

Nearby Weather Stations